sensor_id;sensor_type;location;lat;lon;timestamp;P1;durP1;ratioP1;P2;durP2;ratioP2
20621;SDS011;10470;42.670;23.354;2024-03-25T00:00:22;1.37;;;0.80;;
20621;SDS011;10470;42.670;23.354;2024-03-25T00:02:50;0.87;;;0.80;;
20621;SDS011;10470;42.670;23.354;2024-03-25T00:05:16;0.70;;;0.70;;
20621;SDS011;10470;42.670;23.354;2024-03-25T00:07:47;0.67;;;0.67;;
20621;SDS011;10470;42.670;23.354;2024-03-25T00:10:12;1.67;;;0.90;;
20621;SDS011;10470;42.670;23.354;2024-03-25T00:12:37;1.37;;;0.90;;
20621;SDS011;10470;42.670;23.354;2024-03-25T00:15:03;1.07;;;0.80;;
20621;SDS011;10470;42.670;23.354;2024-03-25T00:17:29;1.40;;;0.70;;
20621;SDS011;10470;42.670;23.354;2024-03-25T00:19:54;0.77;;;0.77;;
20621;SDS011;10470;42.670;23.354;2024-03-25T00:22:20;0.80;;;0.80;;
20621;SDS011;10470;42.670;23.354;2024-03-25T00:24:46;0.60;;;0.60;;
20621;SDS011;10470;42.670;23.354;2024-03-25T00:27:11;0.90;;;0.80;;
20621;SDS011;10470;42.670;23.354;2024-03-25T00:29:37;0.87;;;0.70;;
20621;SDS011;10470;42.670;23.354;2024-03-25T00:32:02;0.80;;;0.80;;
20621;SDS011;10470;42.670;23.354;2024-03-25T00:34:27;0.87;;;0.80;;
20621;SDS011;10470;42.670;23.354;2024-03-25T00:36:52;1.73;;;0.60;;
20621;SDS011;10470;42.670;23.354;2024-03-25T00:39:18;0.90;;;0.70;;
20621;SDS011;10470;42.670;23.354;2024-03-25T00:41:44;0.70;;;0.70;;
20621;SDS011;10470;42.670;23.354;2024-03-25T00:44:09;0.90;;;0.70;;
20621;SDS011;10470;42.670;23.354;2024-03-25T00:46:35;0.60;;;0.60;;
20621;SDS011;10470;42.670;23.354;2024-03-25T00:49:00;0.83;;;0.70;;
20621;SDS011;10470;42.670;23.354;2024-03-25T00:51:26;0.60;;;0.60;;
20621;SDS011;10470;42.670;23.354;2024-03-25T00:53:51;0.93;;;0.70;;
20621;SDS011;10470;42.670;23.354;2024-03-25T00:56:17;0.60;;;0.50;;
20621;SDS011;10470;42.670;23.354;2024-03-25T00:58:42;1.00;;;0.67;;
20621;SDS011;10470;42.670;23.354;2024-03-25T01:01:07;1.03;;;0.50;;
20621;SDS011;10470;42.670;23.354;2024-03-25T01:03:33;0.83;;;0.50;;
20621;SDS011;10470;42.670;23.354;2024-03-25T01:05:59;0.67;;;0.57;;
20621;SDS011;10470;42.670;23.354;2024-03-25T01:08:24;0.50;;;0.50;;
20621;SDS011;10470;42.670;23.354;2024-03-25T01:10:49;0.60;;;0.60;;
20621;SDS011;10470;42.670;23.354;2024-03-25T01:13:14;0.50;;;0.50;;
20621;SDS011;10470;42.670;23.354;2024-03-25T01:15:40;0.50;;;0.50;;
20621;SDS011;10470;42.670;23.354;2024-03-25T01:18:05;0.50;;;0.50;;
20621;SDS011;10470;42.670;23.354;2024-03-25T01:20:30;0.77;;;0.50;;
20621;SDS011;10470;42.670;23.354;2024-03-25T01:22:56;0.50;;;0.50;;
20621;SDS011;10470;42.670;23.354;2024-03-25T01:25:21;0.60;;;0.60;;
20621;SDS011;10470;42.670;23.354;2024-03-25T01:27:46;0.60;;;0.60;;
20621;SDS011;10470;42.670;23.354;2024-03-25T01:30:11;0.60;;;0.60;;
20621;SDS011;10470;42.670;23.354;2024-03-25T01:32:37;0.50;;;0.50;;
20621;SDS011;10470;42.670;23.354;2024-03-25T01:35:02;1.20;;;0.50;;
20621;SDS011;10470;42.670;23.354;2024-03-25T01:37:27;0.87;;;0.50;;
20621;SDS011;10470;42.670;23.354;2024-03-25T01:39:53;0.60;;;0.60;;
20621;SDS011;10470;42.670;23.354;2024-03-25T01:42:18;0.43;;;0.43;;
20621;SDS011;10470;42.670;23.354;2024-03-25T01:44:44;0.60;;;0.60;;
20621;SDS011;10470;42.670;23.354;2024-03-25T01:47:12;0.50;;;0.50;;
20621;SDS011;10470;42.670;23.354;2024-03-25T01:49:37;0.60;;;0.60;;
20621;SDS011;10470;42.670;23.354;2024-03-25T01:52:02;0.57;;;0.57;;
20621;SDS011;10470;42.670;23.354;2024-03-25T01:54:28;1.90;;;0.60;;
20621;SDS011;10470;42.670;23.354;2024-03-25T01:56:53;1.60;;;0.60;;
20621;SDS011;10470;42.670;23.354;2024-03-25T01:59:20;0.60;;;0.60;;
20621;SDS011;10470;42.670;23.354;2024-03-25T02:01:45;0.70;;;0.70;;
20621;SDS011;10470;42.670;23.354;2024-03-25T02:04:11;0.87;;;0.70;;
20621;SDS011;10470;42.670;23.354;2024-03-25T02:06:37;0.97;;;0.83;;
20621;SDS011;10470;42.670;23.354;2024-03-25T02:09:03;0.60;;;0.60;;
20621;SDS011;10470;42.670;23.354;2024-03-25T02:11:29;0.60;;;0.60;;
20621;SDS011;10470;42.670;23.354;2024-03-25T02:13:54;0.50;;;0.50;;
20621;SDS011;10470;42.670;23.354;2024-03-25T02:16:19;0.50;;;0.50;;
20621;SDS011;10470;42.670;23.354;2024-03-25T02:18:45;0.60;;;0.60;;
20621;SDS011;10470;42.670;23.354;2024-03-25T02:21:10;0.57;;;0.57;;
20621;SDS011;10470;42.670;23.354;2024-03-25T02:23:35;0.60;;;0.60;;
20621;SDS011;10470;42.670;23.354;2024-03-25T02:26:02;0.70;;;0.70;;
20621;SDS011;10470;42.670;23.354;2024-03-25T02:28:28;0.67;;;0.67;;
20621;SDS011;10470;42.670;23.354;2024-03-25T02:30:53;0.70;;;0.70;;
20621;SDS011;10470;42.670;23.354;2024-03-25T02:33:18;0.60;;;0.60;;
20621;SDS011;10470;42.670;23.354;2024-03-25T02:35:43;0.70;;;0.70;;
20621;SDS011;10470;42.670;23.354;2024-03-25T02:38:09;0.70;;;0.70;;
20621;SDS011;10470;42.670;23.354;2024-03-25T02:40:35;0.60;;;0.60;;
20621;SDS011;10470;42.670;23.354;2024-03-25T02:43:00;0.80;;;0.80;;
20621;SDS011;10470;42.670;23.354;2024-03-25T02:45:26;0.83;;;0.80;;
20621;SDS011;10470;42.670;23.354;2024-03-25T02:47:51;0.60;;;0.60;;
20621;SDS011;10470;42.670;23.354;2024-03-25T02:50:17;0.60;;;0.60;;
20621;SDS011;10470;42.670;23.354;2024-03-25T02:52:42;0.70;;;0.70;;
20621;SDS011;10470;42.670;23.354;2024-03-25T02:55:07;0.77;;;0.77;;
20621;SDS011;10470;42.670;23.354;2024-03-25T02:57:33;0.70;;;0.70;;
20621;SDS011;10470;42.670;23.354;2024-03-25T02:59:58;0.70;;;0.70;;
20621;SDS011;10470;42.670;23.354;2024-03-25T03:02:23;0.80;;;0.80;;
20621;SDS011;10470;42.670;23.354;2024-03-25T03:04:48;0.90;;;0.90;;
20621;SDS011;10470;42.670;23.354;2024-03-25T03:07:14;0.80;;;0.80;;
20621;SDS011;10470;42.670;23.354;2024-03-25T03:09:39;0.87;;;0.87;;
20621;SDS011;10470;42.670;23.354;2024-03-25T03:12:04;1.23;;;0.80;;
20621;SDS011;10470;42.670;23.354;2024-03-25T03:14:30;0.90;;;0.90;;
20621;SDS011;10470;42.670;23.354;2024-03-25T03:16:55;0.80;;;0.80;;
20621;SDS011;10470;42.670;23.354;2024-03-25T03:19:24;1.07;;;1.07;;
20621;SDS011;10470;42.670;23.354;2024-03-25T03:21:50;0.80;;;0.80;;
20621;SDS011;10470;42.670;23.354;2024-03-25T03:24:15;1.77;;;0.90;;
20621;SDS011;10470;42.670;23.354;2024-03-25T03:26:40;1.03;;;1.03;;
20621;SDS011;10470;42.670;23.354;2024-03-25T03:29:06;1.00;;;1.00;;
20621;SDS011;10470;42.670;23.354;2024-03-25T03:31:31;1.17;;;1.07;;
20621;SDS011;10470;42.670;23.354;2024-03-25T03:33:56;0.90;;;0.90;;
20621;SDS011;10470;42.670;23.354;2024-03-25T03:36:22;1.53;;;1.00;;
20621;SDS011;10470;42.670;23.354;2024-03-25T03:38:47;1.00;;;1.00;;
20621;SDS011;10470;42.670;23.354;2024-03-25T03:41:15;1.83;;;1.00;;
20621;SDS011;10470;42.670;23.354;2024-03-25T03:43:40;1.30;;;1.10;;
20621;SDS011;10470;42.670;23.354;2024-03-25T03:46:05;1.03;;;1.03;;
20621;SDS011;10470;42.670;23.354;2024-03-25T03:48:31;1.30;;;1.20;;
20621;SDS011;10470;42.670;23.354;2024-03-25T03:50:56;1.10;;;1.10;;
20621;SDS011;10470;42.670;23.354;2024-03-25T03:53:21;1.40;;;1.23;;
20621;SDS011;10470;42.670;23.354;2024-03-25T03:55:59;1.40;;;1.30;;
20621;SDS011;10470;42.670;23.354;2024-03-25T03:58:26;1.60;;;1.50;;
20621;SDS011;10470;42.670;23.354;2024-03-25T04:00:52;1.70;;;1.60;;
20621;SDS011;10470;42.670;23.354;2024-03-25T04:03:20;1.67;;;1.57;;
20621;SDS011;10470;42.670;23.354;2024-03-25T04:05:46;1.70;;;1.60;;
20621;SDS011;10470;42.670;23.354;2024-03-25T04:08:11;1.60;;;1.50;;
20621;SDS011;10470;42.670;23.354;2024-03-25T04:10:36;1.50;;;1.40;;
20621;SDS011;10470;42.670;23.354;2024-03-25T04:13:02;1.30;;;1.20;;
20621;SDS011;10470;42.670;23.354;2024-03-25T04:15:28;1.60;;;1.50;;
20621;SDS011;10470;42.670;23.354;2024-03-25T04:17:53;1.70;;;1.60;;
20621;SDS011;10470;42.670;23.354;2024-03-25T04:20:18;2.10;;;1.90;;
20621;SDS011;10470;42.670;23.354;2024-03-25T04:22:47;2.20;;;2.00;;
20621;SDS011;10470;42.670;23.354;2024-03-25T04:25:12;2.10;;;1.87;;
20621;SDS011;10470;42.670;23.354;2024-03-25T04:27:39;2.23;;;2.03;;
20621;SDS011;10470;42.670;23.354;2024-03-25T04:30:05;3.03;;;2.50;;
20621;SDS011;10470;42.670;23.354;2024-03-25T04:32:32;3.67;;;2.70;;
20621;SDS011;10470;42.670;23.354;2024-03-25T04:34:57;3.03;;;2.60;;
20621;SDS011;10470;42.670;23.354;2024-03-25T04:37:22;3.83;;;3.00;;
20621;SDS011;10470;42.670;23.354;2024-03-25T04:39:47;3.40;;;3.00;;
20621;SDS011;10470;42.670;23.354;2024-03-25T04:42:13;2.87;;;2.67;;
20621;SDS011;10470;42.670;23.354;2024-03-25T04:44:38;4.60;;;3.43;;
20621;SDS011;10470;42.670;23.354;2024-03-25T04:47:03;6.60;;;3.83;;
20621;SDS011;10470;42.670;23.354;2024-03-25T04:49:29;5.00;;;3.83;;
20621;SDS011;10470;42.670;23.354;2024-03-25T04:51:54;7.60;;;4.63;;
20621;SDS011;10470;42.670;23.354;2024-03-25T04:54:19;6.10;;;4.30;;
20621;SDS011;10470;42.670;23.354;2024-03-25T04:56:44;6.90;;;4.77;;
20621;SDS011;10470;42.670;23.354;2024-03-25T04:59:10;7.20;;;5.13;;
20621;SDS011;10470;42.670;23.354;2024-03-25T05:01:35;7.73;;;5.27;;
20621;SDS011;10470;42.670;23.354;2024-03-25T05:04:01;7.63;;;5.33;;
20621;SDS011;10470;42.670;23.354;2024-03-25T05:06:27;6.77;;;5.00;;
20621;SDS011;10470;42.670;23.354;2024-03-25T05:08:52;8.80;;;5.67;;
20621;SDS011;10470;42.670;23.354;2024-03-25T05:11:17;6.87;;;5.13;;
20621;SDS011;10470;42.670;23.354;2024-03-25T05:13:42;7.23;;;5.37;;
20621;SDS011;10470;42.670;23.354;2024-03-25T05:16:08;8.70;;;5.60;;
20621;SDS011;10470;42.670;23.354;2024-03-25T05:18:33;9.87;;;6.67;;
20621;SDS011;10470;42.670;23.354;2024-03-25T05:20:58;11.10;;;7.30;;
20621;SDS011;10470;42.670;23.354;2024-03-25T05:23:23;9.90;;;6.80;;
20621;SDS011;10470;42.670;23.354;2024-03-25T05:25:49;9.83;;;6.03;;
20621;SDS011;10470;42.670;23.354;2024-03-25T05:28:14;8.03;;;5.73;;
20621;SDS011;10470;42.670;23.354;2024-03-25T05:30:40;10.67;;;6.80;;
20621;SDS011;10470;42.670;23.354;2024-03-25T05:33:05;8.77;;;6.47;;
20621;SDS011;10470;42.670;23.354;2024-03-25T05:35:30;12.07;;;7.20;;
20621;SDS011;10470;42.670;23.354;2024-03-25T05:37:58;10.53;;;7.07;;
20621;SDS011;10470;42.670;23.354;2024-03-25T05:40:24;9.80;;;6.67;;
20621;SDS011;10470;42.670;23.354;2024-03-25T05:42:49;11.27;;;7.43;;
20621;SDS011;10470;42.670;23.354;2024-03-25T05:45:14;13.33;;;7.43;;
20621;SDS011;10470;42.670;23.354;2024-03-25T05:47:40;9.27;;;6.50;;
20621;SDS011;10470;42.670;23.354;2024-03-25T05:50:06;11.03;;;6.60;;
20621;SDS011;10470;42.670;23.354;2024-03-25T05:52:32;11.10;;;8.03;;
20621;SDS011;10470;42.670;23.354;2024-03-25T05:54:58;10.80;;;7.77;;
20621;SDS011;10470;42.670;23.354;2024-03-25T05:57:23;9.27;;;7.10;;
20621;SDS011;10470;42.670;23.354;2024-03-25T05:59:49;12.70;;;7.83;;
20621;SDS011;10470;42.670;23.354;2024-03-25T06:02:14;12.87;;;7.50;;
20621;SDS011;10470;42.670;23.354;2024-03-25T06:04:39;11.90;;;8.30;;
20621;SDS011;10470;42.670;23.354;2024-03-25T06:07:04;13.33;;;8.83;;
20621;SDS011;10470;42.670;23.354;2024-03-25T06:09:30;11.63;;;8.70;;
20621;SDS011;10470;42.670;23.354;2024-03-25T06:11:55;13.13;;;8.60;;
20621;SDS011;10470;42.670;23.354;2024-03-25T06:14:21;10.13;;;7.43;;
20621;SDS011;10470;42.670;23.354;2024-03-25T06:16:46;12.27;;;8.57;;
20621;SDS011;10470;42.670;23.354;2024-03-25T06:19:11;12.03;;;8.53;;
20621;SDS011;10470;42.670;23.354;2024-03-25T06:21:37;11.30;;;7.43;;
20621;SDS011;10470;42.670;23.354;2024-03-25T06:24:03;14.00;;;8.87;;
20621;SDS011;10470;42.670;23.354;2024-03-25T06:26:28;9.27;;;6.27;;
20621;SDS011;10470;42.670;23.354;2024-03-25T06:28:53;9.33;;;6.90;;
20621;SDS011;10470;42.670;23.354;2024-03-25T06:31:18;15.23;;;8.70;;
20621;SDS011;10470;42.670;23.354;2024-03-25T06:34:02;12.50;;;8.70;;
20621;SDS011;10470;42.670;23.354;2024-03-25T06:36:40;14.23;;;9.03;;
20621;SDS011;10470;42.670;23.354;2024-03-25T06:39:06;11.50;;;8.40;;
20621;SDS011;10470;42.670;23.354;2024-03-25T06:41:31;9.63;;;6.73;;
20621;SDS011;10470;42.670;23.354;2024-03-25T06:43:56;13.27;;;8.53;;
20621;SDS011;10470;42.670;23.354;2024-03-25T06:46:21;13.67;;;10.03;;
20621;SDS011;10470;42.670;23.354;2024-03-25T06:48:47;12.03;;;8.50;;
20621;SDS011;10470;42.670;23.354;2024-03-25T06:51:12;16.63;;;9.63;;
20621;SDS011;10470;42.670;23.354;2024-03-25T06:53:37;10.47;;;7.50;;
20621;SDS011;10470;42.670;23.354;2024-03-25T06:56:03;12.97;;;8.67;;
20621;SDS011;10470;42.670;23.354;2024-03-25T06:58:28;13.27;;;9.33;;
20621;SDS011;10470;42.670;23.354;2024-03-25T07:00:54;11.70;;;7.83;;
20621;SDS011;10470;42.670;23.354;2024-03-25T07:03:20;11.13;;;8.17;;
20621;SDS011;10470;42.670;23.354;2024-03-25T07:05:45;13.87;;;9.60;;
20621;SDS011;10470;42.670;23.354;2024-03-25T07:08:11;12.33;;;8.63;;
20621;SDS011;10470;42.670;23.354;2024-03-25T07:10:37;14.60;;;10.00;;
20621;SDS011;10470;42.670;23.354;2024-03-25T07:13:02;13.83;;;9.83;;
20621;SDS011;10470;42.670;23.354;2024-03-25T07:15:27;10.97;;;7.53;;
20621;SDS011;10470;42.670;23.354;2024-03-25T07:17:53;11.27;;;7.63;;
20621;SDS011;10470;42.670;23.354;2024-03-25T07:20:18;12.90;;;9.00;;
20621;SDS011;10470;42.670;23.354;2024-03-25T07:22:44;9.00;;;6.77;;
20621;SDS011;10470;42.670;23.354;2024-03-25T07:25:09;11.37;;;8.20;;
20621;SDS011;10470;42.670;23.354;2024-03-25T07:27:34;12.57;;;8.67;;
20621;SDS011;10470;42.670;23.354;2024-03-25T07:30:00;9.50;;;7.43;;
20621;SDS011;10470;42.670;23.354;2024-03-25T07:32:25;12.33;;;9.03;;
20621;SDS011;10470;42.670;23.354;2024-03-25T07:34:50;11.20;;;8.03;;
20621;SDS011;10470;42.670;23.354;2024-03-25T07:37:15;12.43;;;9.03;;
20621;SDS011;10470;42.670;23.354;2024-03-25T07:39:42;10.23;;;6.63;;
20621;SDS011;10470;42.670;23.354;2024-03-25T07:42:07;12.77;;;8.17;;
20621;SDS011;10470;42.670;23.354;2024-03-25T07:44:32;10.03;;;7.73;;
20621;SDS011;10470;42.670;23.354;2024-03-25T07:46:58;9.73;;;7.47;;
20621;SDS011;10470;42.670;23.354;2024-03-25T07:49:23;12.23;;;8.30;;
20621;SDS011;10470;42.670;23.354;2024-03-25T07:51:48;11.10;;;8.10;;
20621;SDS011;10470;42.670;23.354;2024-03-25T07:54:13;9.30;;;6.13;;
20621;SDS011;10470;42.670;23.354;2024-03-25T07:56:41;8.10;;;6.93;;
20621;SDS011;10470;42.670;23.354;2024-03-25T07:59:06;9.90;;;7.30;;
20621;SDS011;10470;42.670;23.354;2024-03-25T08:01:32;8.97;;;7.27;;
20621;SDS011;10470;42.670;23.354;2024-03-25T08:03:57;10.27;;;7.17;;
20621;SDS011;10470;42.670;23.354;2024-03-25T08:06:22;11.07;;;8.00;;
20621;SDS011;10470;42.670;23.354;2024-03-25T08:08:47;8.33;;;7.00;;
20621;SDS011;10470;42.670;23.354;2024-03-25T08:11:13;7.30;;;6.57;;
20621;SDS011;10470;42.670;23.354;2024-03-25T08:13:38;8.37;;;6.17;;
20621;SDS011;10470;42.670;23.354;2024-03-25T08:16:03;9.13;;;7.17;;
20621;SDS011;10470;42.670;23.354;2024-03-25T08:18:29;8.40;;;6.73;;
20621;SDS011;10470;42.670;23.354;2024-03-25T08:20:54;9.73;;;7.53;;
20621;SDS011;10470;42.670;23.354;2024-03-25T08:23:19;9.40;;;7.87;;
20621;SDS011;10470;42.670;23.354;2024-03-25T08:25:44;10.00;;;8.30;;
20621;SDS011;10470;42.670;23.354;2024-03-25T08:28:10;12.03;;;8.57;;
20621;SDS011;10470;42.670;23.354;2024-03-25T08:30:35;9.93;;;6.80;;
20621;SDS011;10470;42.670;23.354;2024-03-25T08:33:01;10.40;;;7.50;;
20621;SDS011;10470;42.670;23.354;2024-03-25T08:35:26;11.33;;;7.83;;
20621;SDS011;10470;42.670;23.354;2024-03-25T08:37:51;8.30;;;6.87;;
20621;SDS011;10470;42.670;23.354;2024-03-25T08:40:17;7.40;;;5.83;;
20621;SDS011;10470;42.670;23.354;2024-03-25T08:42:42;11.97;;;7.50;;
20621;SDS011;10470;42.670;23.354;2024-03-25T08:45:07;10.43;;;7.93;;
20621;SDS011;10470;42.670;23.354;2024-03-25T08:47:33;6.90;;;6.03;;
20621;SDS011;10470;42.670;23.354;2024-03-25T08:49:58;7.13;;;6.00;;
20621;SDS011;10470;42.670;23.354;2024-03-25T08:52:23;8.53;;;6.90;;
20621;SDS011;10470;42.670;23.354;2024-03-25T08:54:48;8.17;;;6.07;;
20621;SDS011;10470;42.670;23.354;2024-03-25T08:57:13;6.93;;;6.13;;
20621;SDS011;10470;42.670;23.354;2024-03-25T08:59:39;7.17;;;6.20;;
20621;SDS011;10470;42.670;23.354;2024-03-25T09:02:04;7.77;;;6.57;;
20621;SDS011;10470;42.670;23.354;2024-03-25T09:04:29;10.93;;;7.50;;
20621;SDS011;10470;42.670;23.354;2024-03-25T09:06:55;8.77;;;6.70;;
20621;SDS011;10470;42.670;23.354;2024-03-25T09:09:20;9.63;;;7.43;;
20621;SDS011;10470;42.670;23.354;2024-03-25T09:12:04;8.43;;;5.93;;
20621;SDS011;10470;42.670;23.354;2024-03-25T09:14:29;7.33;;;6.27;;
20621;SDS011;10470;42.670;23.354;2024-03-25T09:16:54;8.40;;;7.33;;
20621;SDS011;10470;42.670;23.354;2024-03-25T09:19:20;9.40;;;6.90;;
20621;SDS011;10470;42.670;23.354;2024-03-25T09:21:45;8.53;;;6.70;;
20621;SDS011;10470;42.670;23.354;2024-03-25T09:24:10;9.73;;;7.40;;
20621;SDS011;10470;42.670;23.354;2024-03-25T09:26:35;10.73;;;7.20;;
20621;SDS011;10470;42.670;23.354;2024-03-25T09:29:01;11.20;;;7.43;;
20621;SDS011;10470;42.670;23.354;2024-03-25T09:31:28;8.83;;;6.90;;
20621;SDS011;10470;42.670;23.354;2024-03-25T09:33:53;8.53;;;6.60;;
20621;SDS011;10470;42.670;23.354;2024-03-25T09:36:18;8.87;;;6.90;;
20621;SDS011;10470;42.670;23.354;2024-03-25T09:38:44;8.13;;;6.30;;
20621;SDS011;10470;42.670;23.354;2024-03-25T09:41:09;6.93;;;6.23;;
20621;SDS011;10470;42.670;23.354;2024-03-25T09:43:48;17.20;;;10.87;;
20621;SDS011;10470;42.670;23.354;2024-03-25T09:46:15;9.23;;;6.80;;
20621;SDS011;10470;42.670;23.354;2024-03-25T09:48:41;9.13;;;7.23;;
20621;SDS011;10470;42.670;23.354;2024-03-25T09:51:07;7.80;;;6.60;;
20621;SDS011;10470;42.670;23.354;2024-03-25T09:53:32;9.43;;;7.20;;
20621;SDS011;10470;42.670;23.354;2024-03-25T09:55:57;9.73;;;7.40;;
20621;SDS011;10470;42.670;23.354;2024-03-25T09:58:24;7.30;;;6.53;;
20621;SDS011;10470;42.670;23.354;2024-03-25T10:00:50;7.87;;;6.23;;
20621;SDS011;10470;42.670;23.354;2024-03-25T10:03:15;9.20;;;6.40;;
20621;SDS011;10470;42.670;23.354;2024-03-25T10:05:40;12.27;;;7.87;;
20621;SDS011;10470;42.670;23.354;2024-03-25T10:08:06;9.57;;;6.63;;
20621;SDS011;10470;42.670;23.354;2024-03-25T10:10:33;7.17;;;6.27;;
20621;SDS011;10470;42.670;23.354;2024-03-25T10:12:58;8.90;;;6.40;;
20621;SDS011;10470;42.670;23.354;2024-03-25T10:15:26;8.97;;;6.77;;
20621;SDS011;10470;42.670;23.354;2024-03-25T10:17:51;6.13;;;4.57;;
20621;SDS011;10470;42.670;23.354;2024-03-25T10:20:17;7.00;;;5.80;;
20621;SDS011;10470;42.670;23.354;2024-03-25T10:22:43;5.83;;;5.23;;
20621;SDS011;10470;42.670;23.354;2024-03-25T10:27:53;6.67;;;5.90;;
20621;SDS011;10470;42.670;23.354;2024-03-25T10:30:18;7.03;;;6.27;;
20621;SDS011;10470;42.670;23.354;2024-03-25T10:32:44;5.73;;;5.13;;
20621;SDS011;10470;42.670;23.354;2024-03-25T10:35:09;5.97;;;5.10;;
20621;SDS011;10470;42.670;23.354;2024-03-25T10:37:34;6.73;;;5.70;;
20621;SDS011;10470;42.670;23.354;2024-03-25T10:40:00;4.57;;;3.90;;
20621;SDS011;10470;42.670;23.354;2024-03-25T10:42:26;4.37;;;3.87;;
20621;SDS011;10470;42.670;23.354;2024-03-25T10:44:52;6.37;;;4.50;;
20621;SDS011;10470;42.670;23.354;2024-03-25T10:47:21;5.27;;;4.17;;
20621;SDS011;10470;42.670;23.354;2024-03-25T10:49:49;5.27;;;4.27;;
20621;SDS011;10470;42.670;23.354;2024-03-25T10:52:14;4.23;;;3.83;;
20621;SDS011;10470;42.670;23.354;2024-03-25T10:54:40;3.80;;;3.50;;
20621;SDS011;10470;42.670;23.354;2024-03-25T10:57:07;4.30;;;3.90;;
20621;SDS011;10470;42.670;23.354;2024-03-25T10:59:32;4.37;;;4.07;;
20621;SDS011;10470;42.670;23.354;2024-03-25T11:02:03;4.07;;;3.67;;
20621;SDS011;10470;42.670;23.354;2024-03-25T11:04:28;5.13;;;3.87;;
20621;SDS011;10470;42.670;23.354;2024-03-25T11:06:53;3.63;;;3.30;;
20621;SDS011;10470;42.670;23.354;2024-03-25T11:09:22;4.90;;;3.83;;
20621;SDS011;10470;42.670;23.354;2024-03-25T11:11:51;3.83;;;3.53;;
20621;SDS011;10470;42.670;23.354;2024-03-25T11:14:16;4.67;;;3.50;;
20621;SDS011;10470;42.670;23.354;2024-03-25T11:16:42;4.47;;;4.07;;
20621;SDS011;10470;42.670;23.354;2024-03-25T11:19:10;4.77;;;3.90;;
20621;SDS011;10470;42.670;23.354;2024-03-25T11:21:35;4.23;;;3.83;;
20621;SDS011;10470;42.670;23.354;2024-03-25T11:24:07;2.40;;;2.20;;
20621;SDS011;10470;42.670;23.354;2024-03-25T11:26:32;5.10;;;3.77;;
20621;SDS011;10470;42.670;23.354;2024-03-25T11:29:00;3.40;;;3.10;;
20621;SDS011;10470;42.670;23.354;2024-03-25T11:31:26;3.60;;;3.20;;
20621;SDS011;10470;42.670;23.354;2024-03-25T11:33:52;5.30;;;3.40;;
20621;SDS011;10470;42.670;23.354;2024-03-25T11:36:17;2.90;;;2.70;;
20621;SDS011;10470;42.670;23.354;2024-03-25T11:39:02;2.93;;;2.63;;
20621;SDS011;10470;42.670;23.354;2024-03-25T11:41:35;3.53;;;3.23;;
20621;SDS011;10470;42.670;23.354;2024-03-25T11:44:03;3.80;;;3.40;;
20621;SDS011;10470;42.670;23.354;2024-03-25T11:46:29;4.20;;;3.33;;
20621;SDS011;10470;42.670;23.354;2024-03-25T11:48:55;3.83;;;3.40;;
20621;SDS011;10470;42.670;23.354;2024-03-25T11:51:20;4.83;;;3.80;;
20621;SDS011;10470;42.670;23.354;2024-03-25T11:53:46;3.20;;;2.90;;
20621;SDS011;10470;42.670;23.354;2024-03-25T11:56:11;3.93;;;3.47;;
20621;SDS011;10470;42.670;23.354;2024-03-25T11:58:39;4.30;;;3.60;;
20621;SDS011;10470;42.670;23.354;2024-03-25T12:01:05;3.07;;;2.47;;
20621;SDS011;10470;42.670;23.354;2024-03-25T12:03:30;3.73;;;3.37;;
20621;SDS011;10470;42.670;23.354;2024-03-25T12:05:56;3.20;;;2.90;;
20621;SDS011;10470;42.670;23.354;2024-03-25T12:08:21;16.87;;;6.43;;
20621;SDS011;10470;42.670;23.354;2024-03-25T12:10:50;3.70;;;2.97;;
20621;SDS011;10470;42.670;23.354;2024-03-25T12:13:34;4.07;;;2.63;;
20621;SDS011;10470;42.670;23.354;2024-03-25T12:16:00;3.53;;;3.23;;
20621;SDS011;10470;42.670;23.354;2024-03-25T12:18:25;3.90;;;3.17;;
20621;SDS011;10470;42.670;23.354;2024-03-25T12:20:50;3.13;;;2.80;;
20621;SDS011;10470;42.670;23.354;2024-03-25T12:23:17;3.40;;;2.90;;
20621;SDS011;10470;42.670;23.354;2024-03-25T12:25:47;3.33;;;3.07;;
20621;SDS011;10470;42.670;23.354;2024-03-25T12:28:13;2.97;;;2.70;;
20621;SDS011;10470;42.670;23.354;2024-03-25T12:33:43;2.40;;;2.20;;
20621;SDS011;10470;42.670;23.354;2024-03-25T12:36:09;5.27;;;3.30;;
20621;SDS011;10470;42.670;23.354;2024-03-25T12:38:34;3.10;;;2.80;;
20621;SDS011;10470;42.670;23.354;2024-03-25T12:41:11;2.87;;;2.67;;
20621;SDS011;10470;42.670;23.354;2024-03-25T12:43:41;3.07;;;2.77;;
20621;SDS011;10470;42.670;23.354;2024-03-25T12:46:07;4.73;;;2.73;;
20621;SDS011;10470;42.670;23.354;2024-03-25T12:48:33;3.33;;;2.90;;
20621;SDS011;10470;42.670;23.354;2024-03-25T12:50:59;4.23;;;3.20;;
20621;SDS011;10470;42.670;23.354;2024-03-25T12:53:24;3.50;;;3.20;;
20621;SDS011;10470;42.670;23.354;2024-03-25T12:55:49;3.03;;;2.80;;
20621;SDS011;10470;42.670;23.354;2024-03-25T12:58:15;3.07;;;2.87;;
20621;SDS011;10470;42.670;23.354;2024-03-25T13:00:40;3.17;;;2.87;;
20621;SDS011;10470;42.670;23.354;2024-03-25T13:03:05;3.00;;;2.70;;
20621;SDS011;10470;42.670;23.354;2024-03-25T13:05:32;4.10;;;3.70;;
20621;SDS011;10470;42.670;23.354;2024-03-25T13:07:58;3.30;;;3.00;;
20621;SDS011;10470;42.670;23.354;2024-03-25T13:10:23;2.83;;;2.60;;
20621;SDS011;10470;42.670;23.354;2024-03-25T13:12:48;3.33;;;2.53;;
20621;SDS011;10470;42.670;23.354;2024-03-25T13:15:14;2.87;;;2.67;;
20621;SDS011;10470;42.670;23.354;2024-03-25T13:17:39;3.20;;;3.00;;
20621;SDS011;10470;42.670;23.354;2024-03-25T13:20:04;3.10;;;2.80;;
20621;SDS011;10470;42.670;23.354;2024-03-25T13:22:30;3.10;;;2.90;;
20621;SDS011;10470;42.670;23.354;2024-03-25T13:24:57;2.90;;;2.70;;
20621;SDS011;10470;42.670;23.354;2024-03-25T13:27:22;3.23;;;2.43;;
20621;SDS011;10470;42.670;23.354;2024-03-25T13:29:48;3.90;;;2.90;;
20621;SDS011;10470;42.670;23.354;2024-03-25T13:32:13;3.50;;;3.20;;
20621;SDS011;10470;42.670;23.354;2024-03-25T13:34:38;4.40;;;3.43;;
20621;SDS011;10470;42.670;23.354;2024-03-25T13:37:04;2.83;;;2.63;;
20621;SDS011;10470;42.670;23.354;2024-03-25T13:39:29;3.47;;;3.17;;
20621;SDS011;10470;42.670;23.354;2024-03-25T13:41:54;4.20;;;3.53;;
20621;SDS011;10470;42.670;23.354;2024-03-25T13:44:20;4.17;;;3.27;;
20621;SDS011;10470;42.670;23.354;2024-03-25T13:46:45;3.13;;;2.83;;
20621;SDS011;10470;42.670;23.354;2024-03-25T13:49:10;3.33;;;2.83;;
20621;SDS011;10470;42.670;23.354;2024-03-25T13:51:36;3.63;;;2.80;;
20621;SDS011;10470;42.670;23.354;2024-03-25T13:54:01;2.40;;;2.20;;
20621;SDS011;10470;42.670;23.354;2024-03-25T13:56:27;2.67;;;2.47;;
20621;SDS011;10470;42.670;23.354;2024-03-25T13:58:53;2.40;;;2.20;;
20621;SDS011;10470;42.670;23.354;2024-03-25T14:01:18;3.83;;;2.83;;
20621;SDS011;10470;42.670;23.354;2024-03-25T14:03:43;2.17;;;1.97;;
20621;SDS011;10470;42.670;23.354;2024-03-25T14:06:08;3.47;;;2.50;;
20621;SDS011;10470;42.670;23.354;2024-03-25T14:08:34;2.00;;;1.80;;
20621;SDS011;10470;42.670;23.354;2024-03-25T14:11:00;2.07;;;1.50;;
20621;SDS011;10470;42.670;23.354;2024-03-25T14:13:25;2.97;;;1.67;;
20621;SDS011;10470;42.670;23.354;2024-03-25T14:15:50;2.17;;;1.67;;
20621;SDS011;10470;42.670;23.354;2024-03-25T14:18:16;2.00;;;1.80;;
20621;SDS011;10470;42.670;23.354;2024-03-25T14:20:41;4.10;;;2.10;;
20621;SDS011;10470;42.670;23.354;2024-03-25T14:23:06;1.80;;;1.70;;
20621;SDS011;10470;42.670;23.354;2024-03-25T14:25:32;2.93;;;1.70;;
20621;SDS011;10470;42.670;23.354;2024-03-25T14:27:57;2.23;;;1.73;;